Sebastian Quaison

Olheiro - Atvidaberg
17 Jul 2027
Sábado
Processo

Personalidade

Adaptabilidade (4) Ambição (7) Controvérsia (19) Lealdade (20) Pressão (16) Profissionalismo (12) Espírito Esportivo (20) Temperamento (13)

Perfil

Estilo de Treinamento Democrático
Licença Nacional B
Determinação 4
Gestão de Pessoas 9
Motivação 8
Disciplina 7
Satisfação no Trabalho
100%
Fadiga
0%
Função Olheiro
Salário 29.7K p/s
Contrato 14.03.2029

Desempenho

Comportamento Bom
Eficácia do Treinamento
35%
Desenvolvimento do Jogador
25%
Prevenção de Lesões
35%
Implementação Tática
35%

Eventos Recentes

Participou de uma reunião de recrutamento agora
Participou de uma reunião de recrutamento agora
Participou de uma reunião de recrutamento agora
Participou de uma reunião de recrutamento 7d atrás
Participou de uma reunião de recrutamento 7d atrás
Participou de uma reunião de recrutamento 7d atrás
Participou de uma reunião de recrutamento 7d atrás
Observou uma partida 7d atrás

Monitorando agora

81
Jogador Clube Status Habilidade Confiança Observado Última observação Último voto
Henry Atola AIK Negociando 92 / 84 62% 1 16.07.2027 -
Sindre Walle Egeli Nottingham Forest Ativo 146 / 138 40% 1 31.01.2027 -
Fashion Sakala MC Alger Ativo 122 / 124 40% 1 28.01.2027 -
German Onugkha Rodina Ativo 132 / 120 40% 2 27.01.2027 -
François Kamano Sochi Ativo 131 / 111 40% 2 24.01.2027 -
Malik Mothersille Stockport County Ativo 130 / 110 40% 1 24.01.2027 -
Lamine Cissé Peterborough United Ativo 131 / 125 40% 2 22.01.2027 Mais informações
Friday Ubong Hearts of Oak Ativo 111 / 104 40% 2 20.01.2027 -
Dom Ballard Leyton Orient Ativo 114 / 128 40% 1 19.01.2027 -
Ádin Molnár MTK Budapest Ativo 101 / 110 40% 2 16.01.2027 -
Duncan Watmore Bristol Rovers Ativo 98 / 119 40% 1 16.01.2027 -
Prince Ukachukwu Victoria United Ativo 94 / 99 40% 2 15.01.2027 -
Anthony Scully Shrewsbury Town Ativo 109 / 97 40% 1 14.01.2027 -
Rui Costa Port Vale Ativo 95 / 97 40% 1 14.01.2027 -
Davis Keillor-Dunn Wrexham Ativo 110 / 121 40% 1 10.01.2027 Mais informações
Aaron Collins Milton Keynes Dons Ativo 113 / 114 40% 1 10.01.2027 Mais informações
Yousef Salech Cardiff City Ativo 132 / 112 40% 2 09.01.2027 -
Danila Shilov Dinamo Stavropol Ativo 94 / 89 40% 1 09.01.2027 -
Heung-Min Son Los Angeles Football Club Ativo 161 / 159 40% 2 08.01.2027 -
Kamran Aliev SKA Khabarovsk Ativo 99 / 93 40% 1 08.01.2027 -
Shayne Lavery Cambridge United Ativo 121 / 97 40% 1 08.01.2027 -
Leandro Godoy CSKA Sofia Ativo 107 / 118 40% 1 07.01.2027 -
Róbert Polievka MTK Budapest Ativo 120 / 121 40% 2 03.01.2027 -
Kwame Addo WAFA Ativo 98 / 85 40% 1 03.01.2027 -
Stephen Odey Ittihad Ativo 115 / 103 40% 2 31.12.2026 -
Kristian Strømland Lien Djurgarden Ativo 120 / 122 40% 1 31.12.2026 -
Troy Parrott Betis Ativo 123 / 136 40% 1 28.12.2026 -
Stephen Amankona Aduana Stars Ativo 86 / 84 40% 1 26.12.2026 -
Bo Hegland Djurgarden Ativo 106 / 105 40% 3 22.12.2026 -
Marin Benko Zadar Ativo 130 / 135 40% 2 21.12.2026 -
Sandi Elsnik NK Domzale Ativo 114 / 99 40% 1 21.12.2026 -
Robert Mizo Aswan Ativo 93 / 105 40% 1 15.12.2026 -
Elijah Adebayo Luton Town Ativo 123 / 116 40% 1 15.12.2026 -
Artem Stepanovich Sevastopol Ativo 80 / 89 40% 1 14.12.2026 -
Krisztian Varga Haladas Ativo 105 / 104 40% 1 12.12.2026 -
Malcolm Stolt Kalmar FF Ativo 105 / 84 40% 3 09.12.2026 -
Erik Flataker AIK Ativo 99 / 117 40% 1 03.12.2026 -
Oliver Brynéus Ilves Ativo 85 / 83 40% 1 30.11.2026 -
Veton Berisha Viking Ativo 126 / 120 40% 3 25.11.2026 -
Matej Trusa DAC Dunajska Streda Ativo 120 / 115 40% 1 24.11.2026 -
Emiliano Marcondes Halmstad Ativo 111 / 109 40% 1 23.11.2026 -
Rafael Navarro St. Louis CITY SC Ativo 122 / 116 40% 2 21.11.2026 -
Gustav Lindgren BK Hacken Ativo 99 / 102 40% 1 18.11.2026 -
Armstrong Oko-Flex Levski Ativo 115 / 119 40% 1 18.11.2026 -
Cheikh Sabaly Vancouver Whitecaps Ativo 112 / 113 40% 1 14.11.2026 -
Vegard Erlien Tromso Ativo 128 / 121 40% 2 13.11.2026 -
Andreas Helmersen Bodo/Glimt Ativo 129 / 117 40% 1 13.11.2026 -
Andreas Gruber DAC Dunajska Streda Ativo 132 / 130 40% 1 11.11.2026 -
Adam Akimey Helsingborg Ativo 94 / 96 40% 1 11.11.2026 -
Alberto Soro Dinamo Bucharest Ativo 129 / 106 40% 1 10.11.2026 -
Brayan Gil Baltika Ativo 127 / 125 40% 1 10.11.2026 -
Adrian Svanbäck BK Hacken Ativo 113 / 129 40% 2 09.11.2026 -
Taylor Silverholt IF Elfsborg Ativo 97 / 113 40% 1 09.11.2026 -
Samuel Wikman Orebro Ativo 86 / 102 40% 1 06.11.2026 -
Ola Brynhildsen Bodo/Glimt Ativo 119 / 127 40% 1 04.11.2026 -
Gabor Gulacsi Haladas Ativo 122 / 123 40% 1 03.11.2026 -
Simon Elisor Universitatea Craiova Ativo 102 / 122 40% 1 02.11.2026 -
Marcus Ingvartsen San Diego Football Club Ativo 115 / 125 40% 4 30.10.2026 -
Antonio Yakoub Orebro Ativo 105 / 101 40% 1 30.10.2026 -
Luca Langoni New England Revolution Ativo 127 / 124 40% 1 25.10.2026 -
Tadeo Allende Inter Miami CF Ativo 130 / 126 40% 3 24.10.2026 -
Alexander Johansson Helsingborg Ativo 110 / 108 40% 1 24.10.2026 -
Obilor Okeke Hammarby Ativo 124 / 108 40% 1 21.10.2026 -
Taha Ayari AIK Ativo 116 / 112 40% 1 19.10.2026 -
Morgan Guilavogui Real Salt Lake Ativo 131 / 112 40% 2 16.10.2026 -
Johannes Eggestein Austria Wien Ativo 136 / 122 40% 1 14.10.2026 -
Jordan Roberts Stevenage Ativo 126 / 98 40% 1 13.10.2026 -
Alexander Fesshaie Helsingborg Ativo 99 / 95 40% 2 12.10.2026 -
Liel Abada Charlotte Football Club Ativo 143 / 135 40% 1 10.10.2026 -
Leandro Suhr Piast Ativo 124 / 115 40% 1 10.10.2026 -
Paulos Abraham Hammarby Ativo 117 / 128 40% 2 02.10.2026 -
Elias Hoff Melkersen Stromsgodset Ativo 115 / 110 40% 1 28.09.2026 -
Ammar Ramadan DAC Dunajska Streda Ativo 131 / 115 40% 1 25.09.2026 -
Nikolaj Möller Sandefjord Ativo 101 / 106 40% 1 19.09.2026 -
Kyogo Furuhashi LA Galaxy Ativo 104 / 103 40% 1 16.09.2026 -
Maurice Malone Minnesota United FC Ativo 113 / 129 40% 1 16.09.2026 -
Albin Skoglund Valur Ativo 108 / 105 40% 1 14.09.2026 -
Maclyn Biokpo Jenewari Rivers United Ativo 102 / 106 40% 1 09.09.2026 -
Gafar Saka Plateau United Ativo 82 / 97 40% 1 07.09.2026 -
Ville Koski Alavés Ativo 110 / 108 40% 1 01.08.2026 -
David Affengruber Fulham Ativo 146 / 130 40% 1 01.08.2026 -